createdAt,value
2023-08-17T00:01:45.011Z,19.18
2023-08-17T00:04:15.997Z,19.21
2023-08-17T00:06:48.095Z,19.23
2023-08-17T00:09:19.079Z,19.26
2023-08-17T00:11:49.793Z,19.29
2023-08-17T00:14:20.496Z,19.32
2023-08-17T00:16:53.146Z,19.35
2023-08-17T00:19:24.490Z,19.36
2023-08-17T00:21:56.452Z,19.39
2023-08-17T00:24:27.170Z,19.40
2023-08-17T00:26:58.035Z,19.41
2023-08-17T00:29:28.787Z,19.40
2023-08-17T00:31:59.863Z,19.38
2023-08-17T00:34:30.812Z,19.38
2023-08-17T00:37:01.758Z,19.40
2023-08-17T00:39:32.693Z,19.41
2023-08-17T00:42:03.365Z,19.43
2023-08-17T00:44:34.104Z,19.45
2023-08-17T00:47:05.858Z,19.46
2023-08-17T00:49:37.847Z,19.46
2023-08-17T00:52:09.678Z,19.46
2023-08-17T00:54:41.450Z,19.46
2023-08-17T00:57:12.424Z,19.48
2023-08-17T00:59:47.169Z,19.49
2023-08-17T01:02:23.645Z,19.50
2023-08-17T01:04:54.516Z,19.50
2023-08-17T01:07:25.807Z,19.47
2023-08-17T01:09:56.808Z,19.46
2023-08-17T01:12:31.663Z,19.44
2023-08-17T01:15:23.250Z,19.40
2023-08-17T01:17:58.797Z,19.36
2023-08-17T01:20:32.542Z,19.32
2023-08-17T01:23:08.496Z,19.29
2023-08-17T01:25:39.654Z,19.27
2023-08-17T01:28:10.529Z,19.27
2023-08-17T01:30:47.145Z,19.26
2023-08-17T01:33:23.257Z,19.28
2023-08-17T01:36:03.630Z,19.29
2023-08-17T01:38:35.255Z,19.32
2023-08-17T01:41:09.232Z,19.34
2023-08-17T01:43:40.586Z,19.36
2023-08-17T01:46:12.020Z,19.38
2023-08-17T01:48:43.308Z,19.38
2023-08-17T01:51:19.206Z,19.35
2023-08-17T01:53:50.322Z,19.27
2023-08-17T01:56:21.171Z,19.17
2023-08-17T01:58:51.816Z,19.08
2023-08-17T02:01:22.660Z,19.02
2023-08-17T02:03:54.110Z,18.98
2023-08-17T02:06:25.530Z,18.95
2023-08-17T02:08:56.381Z,18.95
2023-08-17T02:11:28.135Z,18.94
2023-08-17T02:13:58.847Z,18.94
2023-08-17T02:16:29.983Z,18.92
2023-08-17T02:19:00.536Z,18.87
2023-08-17T02:21:31.311Z,18.82
2023-08-17T02:24:02.266Z,18.71
2023-08-17T02:26:33.310Z,18.58
2023-08-17T02:29:04.399Z,18.45
2023-08-17T02:31:35.742Z,18.29
2023-08-17T02:34:07.150Z,18.19
2023-08-17T02:36:37.782Z,18.09
2023-08-17T02:39:09.178Z,18.02
2023-08-17T02:41:40.350Z,17.95
2023-08-17T02:44:11.520Z,17.90
2023-08-17T02:46:42.116Z,17.84
2023-08-17T02:49:13.038Z,17.83
2023-08-17T02:51:44.120Z,17.82
2023-08-17T02:54:14.753Z,17.83
2023-08-17T02:56:45.720Z,17.84
2023-08-17T02:59:16.317Z,17.88
2023-08-17T03:01:47.746Z,17.90
2023-08-17T03:04:18.330Z,17.91
2023-08-17T03:06:49.279Z,17.92
2023-08-17T03:09:19.759Z,17.92
2023-08-17T03:11:50.706Z,17.93
2023-08-17T03:14:21.680Z,17.94
2023-08-17T03:16:52.921Z,17.95
2023-08-17T03:19:23.491Z,17.95
2023-08-17T03:21:54.856Z,17.96
2023-08-17T03:24:25.777Z,17.96
2023-08-17T03:26:56.855Z,17.96
2023-08-17T03:29:28.181Z,18.01
2023-08-17T03:31:58.903Z,18.07
2023-08-17T03:34:29.844Z,18.10
2023-08-17T03:37:01.125Z,18.14
2023-08-17T03:39:31.992Z,18.17
2023-08-17T03:42:03.248Z,18.20
2023-08-17T03:44:34.165Z,18.24
2023-08-17T03:47:04.841Z,18.27
2023-08-17T03:49:35.711Z,18.29
2023-08-17T03:52:07.377Z,18.29
2023-08-17T03:54:38.148Z,18.31
2023-08-17T03:57:09.316Z,18.33
2023-08-17T03:59:39.995Z,18.34
2023-08-17T04:02:10.900Z,18.35
2023-08-17T04:04:41.579Z,18.34
2023-08-17T04:07:12.949Z,18.36
2023-08-17T04:09:47.246Z,18.37
2023-08-17T04:12:17.856Z,18.38
2023-08-17T04:14:48.919Z,18.39
2023-08-17T04:17:19.935Z,18.39
2023-08-17T04:19:51.138Z,18.40
2023-08-17T04:22:21.776Z,18.39
2023-08-17T04:24:52.723Z,18.39
2023-08-17T04:27:23.737Z,18.40
2023-08-17T04:29:54.942Z,18.41
2023-08-17T04:32:25.703Z,18.42
2023-08-17T04:34:56.602Z,18.43
2023-08-17T04:37:28.278Z,18.43
2023-08-17T04:39:59.706Z,18.44
2023-08-17T04:42:30.584Z,18.45
2023-08-17T04:45:01.631Z,18.48
2023-08-17T04:47:32.199Z,18.50
2023-08-17T04:50:03.053Z,18.53
2023-08-17T04:52:33.820Z,18.55
2023-08-17T04:55:05.018Z,18.56
2023-08-17T04:57:36.000Z,18.57
2023-08-17T05:00:10.782Z,18.57
2023-08-17T05:02:41.727Z,18.58
2023-08-17T05:05:15.138Z,18.59
2023-08-17T05:07:45.750Z,18.62
2023-08-17T05:10:16.740Z,18.64
2023-08-17T05:12:48.151Z,18.66
2023-08-17T05:15:18.699Z,18.68
2023-08-17T05:17:49.392Z,18.69
2023-08-17T05:20:21.962Z,18.70
2023-08-17T05:22:52.620Z,18.70
2023-08-17T05:25:24.073Z,18.71
2023-08-17T05:27:54.906Z,18.73
2023-08-17T05:30:25.648Z,18.73
2023-08-17T05:32:56.906Z,18.73
2023-08-17T05:35:27.960Z,18.72
2023-08-17T05:37:59.515Z,18.72
2023-08-17T05:40:31.348Z,18.73
2023-08-17T05:43:02.018Z,18.75
2023-08-17T05:45:32.658Z,18.76
2023-08-17T05:48:03.708Z,18.78
2023-08-17T05:50:34.735Z,18.82
2023-08-17T05:53:05.696Z,18.83
2023-08-17T05:55:36.620Z,18.85
2023-08-17T05:58:07.501Z,18.87
2023-08-17T06:00:38.729Z,18.88
2023-08-17T06:03:10.165Z,18.88
2023-08-17T06:05:41.717Z,18.88
2023-08-17T06:08:12.245Z,18.91
2023-08-17T06:10:43.100Z,18.93
2023-08-17T06:13:14.016Z,18.94
2023-08-17T06:15:44.673Z,18.94
2023-08-17T06:18:15.384Z,18.97
2023-08-17T06:20:47.559Z,19.00
2023-08-17T06:23:18.152Z,19.03
2023-08-17T06:25:48.786Z,19.06
2023-08-17T06:28:20.055Z,19.09
2023-08-17T06:30:53.480Z,19.10
2023-08-17T06:33:25.096Z,19.10
2023-08-17T06:35:55.940Z,19.11
2023-08-17T06:38:26.897Z,19.14
2023-08-17T06:40:57.636Z,19.17
2023-08-17T06:43:28.189Z,19.23
2023-08-17T06:46:01.522Z,19.27
2023-08-17T06:48:33.453Z,19.32
2023-08-17T06:51:05.861Z,19.37
2023-08-17T06:53:37.121Z,19.42
2023-08-17T06:56:08.692Z,19.44
2023-08-17T06:58:39.546Z,19.49
2023-08-17T07:01:10.883Z,19.52
2023-08-17T07:03:41.812Z,19.52
2023-08-17T07:06:13.861Z,19.50
2023-08-17T07:08:44.658Z,19.49
2023-08-17T07:11:15.388Z,19.50
2023-08-17T07:13:46.738Z,19.50
2023-08-17T07:16:17.438Z,19.50
2023-08-17T07:18:48.163Z,19.50
2023-08-17T07:21:18.606Z,19.49
2023-08-17T07:23:49.923Z,19.48
2023-08-17T07:26:21.519Z,19.48
2023-08-17T07:28:52.477Z,19.49
2023-08-17T07:31:23.154Z,19.48
2023-08-17T07:33:53.944Z,19.47
2023-08-17T07:36:24.807Z,19.42
2023-08-17T07:38:55.723Z,19.37
2023-08-17T07:41:27.097Z,19.32
2023-08-17T07:43:58.282Z,19.26
2023-08-17T07:46:28.927Z,19.23
2023-08-17T07:48:59.898Z,19.24
2023-08-17T07:51:31.140Z,19.25
2023-08-17T07:54:02.527Z,19.26
2023-08-17T07:56:33.300Z,19.29
2023-08-17T07:59:04.074Z,19.30
2023-08-17T08:01:35.389Z,19.34
2023-08-17T08:04:06.546Z,19.39
2023-08-17T08:06:37.319Z,19.42
2023-08-17T08:09:08.922Z,19.46
2023-08-17T08:11:39.474Z,19.49
2023-08-17T08:14:10.591Z,19.54
2023-08-17T08:16:41.836Z,19.63
2023-08-17T08:19:12.489Z,19.69
2023-08-17T08:21:43.227Z,19.74
2023-08-17T08:24:22.202Z,19.73
2023-08-17T08:27:01.951Z,19.71
2023-08-17T08:29:32.616Z,19.73
2023-08-17T08:32:04.537Z,19.79
2023-08-17T08:34:35.423Z,19.85
2023-08-17T08:37:06.732Z,19.87
2023-08-17T08:39:52.628Z,19.90
2023-08-17T08:42:24.360Z,19.94
2023-08-17T08:44:55.389Z,19.93
2023-08-17T08:47:28.142Z,19.90
2023-08-17T08:50:03.707Z,19.87
2023-08-17T08:52:37.803Z,19.85
2023-08-17T08:55:14.189Z,19.85
2023-08-17T08:57:51.662Z,19.87
2023-08-17T09:00:23.239Z,19.96
2023-08-17T09:02:54.634Z,19.99
2023-08-17T09:05:26.108Z,19.96
2023-08-17T09:07:58.720Z,19.93
2023-08-17T09:10:31.814Z,19.89
2023-08-17T09:13:03.450Z,19.83
2023-08-17T09:15:34.210Z,19.79
2023-08-17T09:18:07.435Z,19.77
2023-08-17T09:20:47.332Z,19.75
2023-08-17T09:23:21.202Z,19.76
2023-08-17T09:25:58.980Z,19.79
2023-08-17T09:28:32.384Z,19.74
2023-08-17T09:31:04.870Z,19.70
2023-08-17T09:33:36.603Z,19.69
2023-08-17T09:36:07.823Z,19.66
2023-08-17T09:38:39.466Z,19.64
2023-08-17T09:41:10.444Z,19.65
2023-08-17T09:43:41.014Z,19.67
2023-08-17T09:46:13.010Z,19.72
2023-08-17T09:48:45.282Z,19.83
2023-08-17T09:51:18.551Z,19.92
2023-08-17T09:54:00.019Z,19.98
2023-08-17T09:56:31.846Z,20.00
2023-08-17T09:59:02.429Z,20.01
2023-08-17T10:01:33.634Z,20.02
2023-08-17T10:04:06.356Z,20.00
2023-08-17T10:06:41.244Z,19.97
2023-08-17T10:09:17.086Z,19.91
2023-08-17T10:11:53.869Z,19.83
2023-08-17T10:14:31.690Z,19.78
2023-08-17T10:17:11.420Z,19.73
2023-08-17T10:19:53.008Z,19.65
2023-08-17T10:22:30.578Z,19.60
2023-08-17T10:25:02.582Z,19.63
2023-08-17T10:27:34.539Z,19.59
2023-08-17T10:30:09.305Z,19.52
2023-08-17T10:32:42.590Z,19.43
2023-08-17T10:35:13.600Z,19.35
2023-08-17T10:37:44.935Z,19.20
2023-08-17T10:40:16.078Z,19.14
2023-08-17T10:42:55.681Z,19.14
2023-08-17T10:45:37.994Z,19.07
2023-08-17T10:48:30.292Z,19.02
2023-08-17T10:51:06.430Z,19.00
2023-08-17T10:53:44.274Z,18.96
2023-08-17T10:56:18.752Z,18.91
2023-08-17T10:58:53.353Z,18.87
2023-08-17T11:01:38.039Z,18.86
2023-08-17T11:04:18.709Z,18.83
2023-08-17T11:07:02.472Z,18.75
2023-08-17T11:09:33.365Z,18.71
2023-08-17T11:12:06.964Z,18.74
2023-08-17T11:14:38.116Z,18.83
2023-08-17T11:17:11.465Z,18.94
2023-08-17T11:19:45.584Z,19.05
2023-08-17T11:22:17.926Z,19.07
2023-08-17T11:24:52.077Z,19.03
2023-08-17T11:27:24.125Z,18.97
2023-08-17T11:29:55.670Z,18.97
2023-08-17T11:32:26.964Z,19.00
2023-08-17T11:34:59.627Z,19.06
2023-08-17T11:37:30.693Z,19.13
2023-08-17T11:40:01.432Z,19.24
2023-08-17T11:42:32.546Z,19.32
2023-08-17T11:45:03.962Z,19.40
2023-08-17T11:47:35.104Z,19.44
2023-08-17T11:50:19.164Z,19.50
2023-08-17T11:52:51.579Z,19.60
2023-08-17T11:55:22.618Z,19.75
2023-08-17T11:57:53.563Z,19.97
2023-08-17T12:00:26.706Z,20.15
2023-08-17T12:02:57.755Z,20.25
2023-08-17T12:05:30.274Z,20.30
2023-08-17T12:08:01.732Z,20.30
2023-08-17T12:10:33.029Z,20.33
2023-08-17T12:13:04.038Z,20.37
2023-08-17T12:15:36.698Z,20.32
2023-08-17T12:18:08.536Z,20.28
2023-08-17T12:20:39.456Z,20.22
2023-08-17T12:23:10.170Z,20.10
2023-08-17T12:25:40.915Z,19.95
2023-08-17T12:28:14.531Z,19.86
2023-08-17T12:30:45.667Z,19.83
2023-08-17T12:33:17.279Z,19.73
2023-08-17T12:35:48.481Z,19.62
2023-08-17T12:38:19.034Z,19.61
2023-08-17T12:40:49.811Z,19.58
2023-08-17T12:43:20.646Z,19.53
2023-08-17T12:45:52.382Z,19.48
2023-08-17T12:48:22.934Z,19.40
2023-08-17T12:50:53.717Z,19.30
2023-08-17T12:53:24.314Z,19.22
2023-08-17T12:55:56.442Z,19.15
2023-08-17T12:58:27.217Z,19.08
2023-08-17T13:00:58.657Z,19.05
2023-08-17T13:03:29.779Z,19.01
2023-08-17T13:06:00.385Z,18.95
2023-08-17T13:08:31.765Z,18.89
2023-08-17T13:11:02.333Z,18.87
2023-08-17T13:13:32.973Z,18.82
2023-08-17T13:16:05.376Z,18.80
2023-08-17T13:18:37.559Z,18.81
2023-08-17T13:21:09.087Z,18.82
2023-08-17T13:23:40.950Z,18.80
2023-08-17T13:26:11.930Z,18.79
2023-08-17T13:28:43.130Z,18.80
2023-08-17T13:31:23.963Z,18.82
2023-08-17T13:33:55.866Z,18.84
2023-08-17T13:36:27.150Z,18.85
2023-08-17T13:38:58.368Z,18.86
2023-08-17T13:41:29.492Z,18.97
2023-08-17T13:44:02.064Z,19.17
2023-08-17T13:46:32.792Z,19.28
2023-08-17T13:49:03.821Z,19.38
2023-08-17T13:51:34.555Z,19.49
2023-08-17T13:54:05.811Z,19.57
2023-08-17T13:56:36.816Z,19.57
2023-08-17T13:59:07.883Z,19.53
2023-08-17T14:01:39.026Z,19.44
2023-08-17T14:04:12.680Z,19.38
2023-08-17T14:06:43.913Z,19.34
2023-08-17T14:09:14.763Z,19.32
2023-08-17T14:11:45.691Z,19.27
2023-08-17T14:14:16.963Z,19.21
2023-08-17T14:16:47.640Z,19.17
2023-08-17T14:19:18.834Z,19.12
2023-08-17T14:21:49.526Z,19.09
2023-08-17T14:24:20.293Z,19.07
2023-08-17T14:26:51.407Z,19.06
2023-08-17T14:29:22.171Z,19.08
2023-08-17T14:31:56.050Z,19.09
2023-08-17T14:34:27.827Z,19.10
2023-08-17T14:36:58.577Z,19.08
2023-08-17T14:39:29.526Z,19.05
2023-08-17T14:42:00.575Z,18.97
2023-08-17T14:44:31.848Z,18.93
2023-08-17T14:47:02.767Z,18.90
2023-08-17T14:49:33.254Z,18.89
2023-08-17T14:52:04.644Z,18.88
2023-08-17T14:54:35.224Z,18.88
2023-08-17T14:57:06.777Z,18.91
2023-08-17T14:59:38.176Z,18.96
2023-08-17T15:02:10.573Z,19.01
2023-08-17T15:04:41.913Z,19.05
2023-08-17T15:07:12.665Z,19.15
2023-08-17T15:09:43.341Z,19.24
2023-08-17T15:12:13.997Z,19.27
2023-08-17T15:14:44.863Z,19.28
2023-08-17T15:17:15.937Z,19.26
2023-08-17T15:19:46.520Z,19.24
2023-08-17T15:22:17.595Z,19.20
2023-08-17T15:24:48.444Z,19.14
2023-08-17T15:27:20.003Z,19.05
2023-08-17T15:29:51.269Z,18.99
2023-08-17T15:32:22.469Z,18.98
2023-08-17T15:34:54.921Z,18.94
2023-08-17T15:37:29.870Z,18.93
2023-08-17T15:40:01.286Z,18.93
2023-08-17T15:42:31.861Z,18.91
2023-08-17T15:45:02.681Z,18.91
2023-08-17T15:47:34.031Z,18.91
2023-08-17T15:50:05.678Z,18.92
2023-08-17T15:52:36.297Z,18.95
2023-08-17T15:55:08.828Z,18.97
2023-08-17T15:57:40.031Z,18.96
2023-08-17T16:00:13.028Z,19.00
2023-08-17T16:02:44.204Z,19.06
2023-08-17T16:05:15.405Z,19.11
2023-08-17T16:07:46.394Z,19.12
2023-08-17T16:10:17.024Z,19.11
2023-08-17T16:12:47.811Z,19.11
2023-08-17T16:15:19.258Z,19.10
2023-08-17T16:17:50.264Z,19.14
2023-08-17T16:20:21.056Z,19.15
2023-08-17T16:22:52.724Z,19.14
2023-08-17T16:25:29.837Z,19.12
2023-08-17T16:27:59.268Z,19.05
2023-08-17T16:30:29.871Z,18.96
2023-08-17T16:33:00.458Z,18.92
2023-08-17T16:35:31.537Z,18.87
2023-08-17T16:38:02.614Z,18.84
2023-08-17T16:40:38.173Z,18.81
2023-08-17T16:43:09.804Z,18.79
2023-08-17T16:45:42.018Z,18.76
2023-08-17T16:48:12.745Z,18.72
2023-08-17T16:50:43.608Z,18.71
2023-08-17T16:53:14.562Z,18.71
2023-08-17T16:55:48.649Z,18.69
2023-08-17T16:58:25.626Z,18.68
2023-08-17T17:00:56.892Z,18.64
2023-08-17T17:03:28.281Z,18.64
2023-08-17T17:05:59.408Z,18.67
2023-08-17T17:08:46.934Z,18.72
2023-08-17T17:11:17.541Z,18.76
2023-08-17T17:13:48.693Z,18.76
2023-08-17T17:16:21.272Z,18.74
2023-08-17T17:18:52.636Z,18.72
2023-08-17T17:21:24.299Z,18.69
2023-08-17T17:23:54.924Z,18.65
2023-08-17T17:26:26.219Z,18.61
2023-08-17T17:28:57.047Z,18.56
2023-08-17T17:31:28.320Z,18.52
2023-08-17T17:33:58.988Z,18.48
2023-08-17T17:36:29.931Z,18.44
2023-08-17T17:39:01.230Z,18.43
2023-08-17T17:41:31.989Z,18.46
2023-08-17T17:44:03.254Z,18.47
2023-08-17T17:46:35.045Z,18.49
2023-08-17T17:49:07.405Z,18.50
2023-08-17T17:51:38.224Z,18.53
2023-08-17T17:54:09.566Z,18.54
2023-08-17T17:56:44.164Z,18.52
2023-08-17T17:59:15.386Z,18.50
2023-08-17T18:01:45.998Z,18.48
2023-08-17T18:04:16.762Z,18.48
2023-08-17T18:06:47.496Z,18.48
2023-08-17T18:09:17.933Z,18.47
2023-08-17T18:11:48.370Z,18.43
2023-08-17T18:14:20.499Z,18.43
2023-08-17T18:16:51.153Z,18.45
2023-08-17T18:19:21.788Z,18.43
2023-08-17T18:21:52.540Z,18.42
2023-08-17T18:24:23.164Z,18.41
2023-08-17T18:26:54.690Z,18.38
2023-08-17T18:29:25.778Z,18.34
2023-08-17T18:31:56.443Z,18.27
2023-08-17T18:34:27.198Z,18.25
2023-08-17T18:36:57.838Z,18.24
2023-08-17T18:39:28.586Z,18.22
2023-08-17T18:41:59.200Z,18.23
2023-08-17T18:44:30.096Z,18.22
2023-08-17T18:47:00.710Z,18.25
2023-08-17T18:49:31.560Z,18.26
2023-08-17T18:52:02.835Z,18.29
2023-08-17T18:54:37.641Z,18.29
2023-08-17T18:57:08.514Z,18.29
2023-08-17T18:59:39.565Z,18.28
2023-08-17T19:02:10.646Z,18.27
2023-08-17T19:04:41.529Z,18.27
2023-08-17T19:07:12.137Z,18.27
2023-08-17T19:09:47.070Z,18.27
2023-08-17T19:12:19.289Z,18.26
2023-08-17T19:14:50.184Z,18.26
2023-08-17T19:17:21.842Z,18.31
2023-08-17T19:19:52.776Z,18.35
2023-08-17T19:22:23.635Z,18.36
2023-08-17T19:24:54.193Z,18.33
2023-08-17T19:27:25.086Z,18.31
2023-08-17T19:29:55.581Z,18.31
2023-08-17T19:32:27.025Z,18.30
2023-08-17T19:34:58.555Z,18.25
2023-08-17T19:37:31.945Z,18.21
2023-08-17T19:40:05.020Z,18.17
2023-08-17T19:42:35.794Z,18.14
2023-08-17T19:45:07.190Z,18.13
2023-08-17T19:47:38.180Z,18.13
2023-08-17T19:50:10.835Z,18.12
2023-08-17T19:52:41.572Z,18.15
2023-08-17T19:55:14.188Z,18.20
2023-08-17T19:57:44.662Z,18.21
2023-08-17T20:00:19.245Z,18.21
2023-08-17T20:02:51.758Z,18.20
2023-08-17T20:05:22.349Z,18.18
2023-08-17T20:07:53.057Z,18.16
2023-08-17T20:10:23.851Z,18.17
2023-08-17T20:12:55.528Z,18.17
2023-08-17T20:15:26.948Z,18.17
2023-08-17T20:17:58.047Z,18.19
2023-08-17T20:20:28.794Z,18.20
2023-08-17T20:23:00.321Z,18.22
2023-08-17T20:25:31.286Z,18.24
2023-08-17T20:28:02.443Z,18.27
2023-08-17T20:30:33.465Z,18.26
2023-08-17T20:33:04.554Z,18.24
2023-08-17T20:35:35.720Z,18.25
2023-08-17T20:38:06.733Z,18.25
2023-08-17T20:40:37.466Z,18.27
2023-08-17T20:43:08.345Z,18.30
2023-08-17T20:45:40.921Z,18.31
2023-08-17T20:48:11.943Z,18.32
2023-08-17T20:50:45.190Z,18.32
2023-08-17T20:53:17.141Z,18.33
2023-08-17T20:55:49.113Z,18.35
2023-08-17T20:58:20.104Z,18.32
2023-08-17T21:00:51.311Z,18.29
2023-08-17T21:03:22.328Z,18.25
2023-08-17T21:05:53.482Z,18.21
2023-08-17T21:08:23.986Z,18.16
2023-08-17T21:10:55.283Z,18.14
2023-08-17T21:13:26.002Z,18.12
2023-08-17T21:16:06.692Z,18.07
2023-08-17T21:18:37.972Z,18.04
2023-08-17T21:21:09.243Z,18.02
2023-08-17T21:23:39.798Z,18.02
2023-08-17T21:26:10.541Z,18.02
2023-08-17T21:28:41.585Z,18.03
2023-08-17T21:31:12.308Z,17.98
2023-08-17T21:33:42.908Z,17.94
2023-08-17T21:36:13.850Z,17.89
2023-08-17T21:38:44.896Z,17.88
2023-08-17T21:41:16.186Z,17.87
2023-08-17T21:43:47.198Z,17.85
2023-08-17T21:46:18.265Z,17.84
2023-08-17T21:48:49.280Z,17.82
2023-08-17T21:51:20.666Z,17.83
2023-08-17T21:53:51.199Z,17.82
2023-08-17T21:56:21.857Z,17.82
2023-08-17T21:58:53.084Z,17.82
2023-08-17T22:01:24.534Z,17.80
2023-08-17T22:03:55.207Z,17.83
2023-08-17T22:06:26.249Z,17.87
2023-08-17T22:08:57.071Z,17.84
2023-08-17T22:11:28.057Z,17.83
2023-08-17T22:13:58.914Z,17.82
2023-08-17T22:16:29.954Z,17.82
2023-08-17T22:19:01.120Z,17.81
2023-08-17T22:21:32.855Z,17.83
2023-08-17T22:24:03.417Z,17.84
2023-08-17T22:26:34.525Z,17.84
2023-08-17T22:29:05.540Z,17.82
2023-08-17T22:31:36.488Z,17.80
2023-08-17T22:34:07.354Z,17.79
2023-08-17T22:36:37.915Z,17.81
2023-08-17T22:39:09.283Z,17.85
2023-08-17T22:41:40.249Z,17.90
2023-08-17T22:44:10.836Z,17.93
2023-08-17T22:46:41.957Z,17.96
2023-08-17T22:49:12.955Z,18.00
2023-08-17T22:51:43.563Z,18.05
2023-08-17T22:54:14.191Z,18.10
2023-08-17T22:56:45.746Z,18.15
2023-08-17T22:59:16.373Z,18.18
2023-08-17T23:01:47.588Z,18.15
2023-08-17T23:04:19.767Z,18.13
2023-08-17T23:06:51.044Z,18.09
2023-08-17T23:09:21.645Z,18.06
2023-08-17T23:11:52.288Z,18.01
2023-08-17T23:14:23.814Z,17.97
2023-08-17T23:16:55.271Z,17.94
2023-08-17T23:19:26.060Z,17.91
2023-08-17T23:21:57.302Z,17.87
2023-08-17T23:24:27.994Z,17.88
2023-08-17T23:26:59.817Z,17.89
2023-08-17T23:29:31.150Z,17.93
2023-08-17T23:32:09.295Z,17.96
2023-08-17T23:34:51.744Z,18.02
2023-08-17T23:37:22.418Z,18.03
2023-08-17T23:39:53.134Z,18.06
2023-08-17T23:42:23.798Z,18.10
2023-08-17T23:44:54.632Z,18.10
2023-08-17T23:47:25.569Z,18.10
2023-08-17T23:49:56.326Z,18.10
2023-08-17T23:52:27.048Z,18.11
2023-08-17T23:54:57.802Z,18.12
2023-08-17T23:57:29.529Z,18.11
